Weather at Namrole Airport

Public forecast

Using degrees Celsius for public forecast. Weather courtesy of forecast.io.

Closest aviation weather report (METAR) to Namrole Airport

Closest report is Pattimura Airport, Ambon, 83.6 nm (154.8 km) E. Retrieved 2022/08/15 09:00 UTC (22 minutes ago):

WAPP 150900Z 14005KT 030V200 6000 -RA BKN015 25/24 Q1009 NOSIG

Closest aviation forecast (TAF) to Namrole Airport

Forecast is more than 12 hours old.

Closest forecast is Namlea Airport, 44.2 nm (81.9 km) NNE. Retrieved 2014/03/16 06:20 UTC (8 years ago):

TAF WAPR 120500Z 1206/1218 31008KT 8000 SCT017 TEMPO 1207/1210 6000 RA FEW015CB BECMG 1212/1214 18003KT